createdAt,value
2023-01-17T06:38:57.759Z,4.30
2023-01-17T06:43:59.821Z,5.33
2023-01-17T06:49:02.043Z,5.07
2023-01-17T06:54:04.233Z,5.47
2023-01-17T06:59:06.434Z,6.53
2023-01-17T07:04:08.623Z,5.47
2023-01-17T07:09:10.735Z,4.37
2023-01-17T07:14:13.769Z,5.03
2023-01-17T07:19:15.972Z,5.37
2023-01-17T07:24:18.720Z,5.68
2023-01-17T07:29:20.828Z,5.10
2023-01-17T07:34:22.867Z,4.17
2023-01-17T07:39:25.164Z,8.47
2023-01-17T07:44:27.252Z,3.92
2023-01-17T07:49:29.330Z,3.10
2023-01-17T07:54:31.373Z,4.00
2023-01-17T07:59:34.486Z,3.17
2023-01-17T08:04:36.605Z,2.08
2023-01-17T08:09:38.659Z,2.57
2023-01-17T08:14:40.716Z,2.78
2023-01-17T08:19:43.369Z,2.42
2023-01-17T08:24:45.419Z,1.80
2023-01-17T08:29:48.461Z,1.50
2023-01-17T08:34:50.571Z,1.42
2023-01-17T08:39:52.689Z,3.10
2023-01-17T08:44:54.762Z,2.40
2023-01-17T08:49:59.612Z,1.15
2023-01-17T08:55:01.957Z,1.70
2023-01-17T09:00:04.317Z,1.20
2023-01-17T09:05:07.043Z,1.12
2023-01-17T09:10:09.734Z,1.60
2023-01-17T09:15:14.701Z,1.20
2023-01-17T09:20:17.143Z,1.37
2023-01-17T09:25:19.271Z,2.70
2023-01-17T09:30:22.183Z,1.48
2023-01-17T09:35:24.559Z,1.60
2023-01-17T09:52:23.833Z,0.90
2023-01-17T09:57:57.049Z,1.80
2023-01-17T10:03:05.213Z,1.40
2023-01-17T10:08:19.273Z,1.80
2023-01-17T10:13:35.518Z,1.53
2023-01-17T10:19:19.518Z,3.05
2023-01-17T10:24:59.111Z,1.30
2023-01-17T10:30:16.963Z,1.67
2023-01-17T10:35:26.514Z,1.45
2023-01-17T10:40:50.282Z,2.30
2023-01-17T10:45:55.301Z,1.57
2023-01-17T10:51:20.315Z,1.75
2023-01-17T10:56:28.073Z,1.52
2023-01-17T11:01:30.360Z,2.87
2023-01-17T11:06:33.213Z,1.70
2023-01-17T11:11:37.500Z,1.73
2023-01-17T11:16:39.628Z,2.85
2023-01-17T11:21:54.822Z,1.93
2023-01-17T11:26:58.049Z,2.00
2023-01-17T11:32:33.691Z,1.75
2023-01-17T11:37:36.268Z,2.93
2023-01-17T11:42:38.513Z,1.10
2023-01-17T11:47:40.574Z,1.45
2023-01-17T11:52:43.382Z,1.20
2023-01-17T11:57:50.911Z,1.10
2023-01-17T12:03:16.079Z,1.35
2023-01-17T12:08:53.138Z,2.03
2023-01-17T12:14:34.463Z,2.20
2023-01-17T12:20:00.825Z,1.25
2023-01-17T12:25:24.661Z,1.75
2023-01-17T12:30:55.909Z,1.83
2023-01-17T12:36:02.963Z,2.33
2023-01-17T12:41:42.534Z,2.20
2023-01-17T12:46:54.584Z,4.23
2023-01-17T12:52:04.974Z,2.13
2023-01-17T12:57:45.677Z,2.45
2023-01-17T13:02:50.753Z,1.90
2023-01-17T13:08:10.967Z,2.10
2023-01-17T13:13:26.008Z,2.60
2023-01-17T13:18:29.857Z,3.67
2023-01-17T13:23:56.425Z,2.77
2023-01-17T13:29:20.187Z,3.53
2023-01-17T13:34:43.715Z,5.03
2023-01-17T13:40:21.811Z,2.87
2023-01-17T13:45:28.546Z,3.40
2023-01-17T13:50:36.806Z,3.53
2023-01-17T13:55:47.266Z,3.20
2023-01-17T14:00:50.611Z,3.50
2023-01-17T14:05:57.119Z,4.82
2023-01-17T14:11:09.827Z,4.62
2023-01-17T14:16:21.011Z,3.83
2023-01-17T14:21:26.297Z,4.22
2023-01-17T14:26:46.362Z,6.10
2023-01-17T14:31:49.328Z,5.63
2023-01-17T14:36:51.405Z,4.53
2023-01-17T14:41:53.504Z,6.20
2023-01-17T14:46:57.211Z,4.12
2023-01-17T14:52:03.974Z,4.43
2023-01-17T14:57:24.917Z,4.32
2023-01-17T15:02:27.220Z,5.53
2023-01-17T15:07:32.317Z,6.37
2023-01-17T15:12:36.746Z,5.97
2023-01-17T15:17:38.852Z,5.40
2023-01-17T15:22:41.012Z,6.00
2023-01-17T15:27:43.296Z,6.70
2023-01-17T15:32:49.266Z,6.10
2023-01-17T15:37:54.263Z,5.15
2023-01-17T15:42:59.380Z,6.20
2023-01-17T15:48:32.721Z,4.97
2023-01-17T15:53:40.732Z,5.22
2023-01-17T15:58:42.843Z,6.00
2023-01-17T16:03:55.329Z,6.55
2023-01-17T16:08:57.458Z,6.32
2023-01-17T16:13:59.648Z,9.50
2023-01-17T16:19:02.852Z,6.40
2023-01-17T16:24:06.043Z,6.43
2023-01-17T16:29:08.253Z,6.03
2023-01-17T16:34:14.659Z,4.50
2023-01-17T16:39:16.823Z,4.65
2023-01-17T16:44:19.498Z,4.80
2023-01-17T16:49:21.564Z,4.30
2023-01-17T16:54:23.780Z,3.75
2023-01-17T16:59:32.192Z,4.78
2023-01-17T17:04:38.841Z,4.80
2023-01-17T17:09:41.042Z,4.47
2023-01-17T17:14:43.302Z,5.65
2023-01-17T17:19:45.390Z,4.30
2023-01-17T17:24:47.428Z,4.07
2023-01-17T17:29:49.488Z,4.40
2023-01-17T17:34:51.559Z,4.90
2023-01-17T17:39:53.625Z,5.20
2023-01-17T17:44:55.706Z,6.43
2023-01-17T17:49:57.899Z,5.35
2023-01-17T17:55:00.046Z,5.30
2023-01-17T18:00:02.532Z,6.73
2023-01-17T18:05:05.041Z,8.75
2023-01-17T18:10:08.918Z,7.45
2023-01-17T18:15:11.203Z,7.43
2023-01-17T18:20:14.472Z,6.40
2023-01-17T18:25:16.688Z,5.62
2023-01-17T18:30:18.786Z,5.97
2023-01-17T18:35:20.855Z,7.62
2023-01-17T18:40:23.030Z,10.93
2023-01-17T18:45:25.077Z,7.40
2023-01-17T18:50:27.154Z,8.70
2023-01-17T18:55:29.255Z,7.05
2023-01-17T19:00:31.387Z,7.70
2023-01-17T19:05:36.213Z,6.97
2023-01-17T19:10:38.449Z,7.72
2023-01-17T19:15:41.753Z,7.07
2023-01-17T19:20:43.943Z,7.80
2023-01-17T19:25:46.025Z,5.45
2023-01-17T19:30:48.104Z,4.70
2023-01-17T19:35:50.386Z,5.03
2023-01-17T19:40:52.484Z,3.57
2023-01-17T19:45:59.361Z,3.78
2023-01-17T19:51:13.102Z,3.62
2023-01-17T19:56:17.671Z,3.37
2023-01-17T20:01:30.313Z,2.95
2023-01-17T20:06:35.635Z,3.53
2023-01-17T20:11:38.382Z,2.67
2023-01-17T20:16:40.588Z,2.60
2023-01-17T20:21:42.793Z,2.25
2023-01-17T20:26:44.949Z,3.00
2023-01-17T20:31:52.482Z,2.63
2023-01-17T20:36:57.491Z,3.37
2023-01-17T20:41:59.591Z,2.05
2023-01-17T20:47:01.777Z,1.83
2023-01-17T20:52:06.057Z,2.35
2023-01-17T20:57:08.289Z,2.60
